Nebo, North Carolina
Current Conditions -  °F | °C
As of 3:55 AM on Thursday 23 Oct 2014 (Local Time) from KFQD Reporting Station
Clear Clear  
Wind Chill: 38°   Ceiling: Unl
Heat Index: 41°   Visibility: 10mi
Dew Point: 37°   Wind: 5mph
Humidity: 84%   Direction: 330°NNW
Pressure: 30.09"   Gusts: NA
Location:  35.67°N, 81.9°W
Report Text: KFQD 230755Z AUTO 33004KT 10SM CLR 05/03 A3009 RMK AO2 T00510026
Loading
Personal Weather Stations






























Interactive Weather Map
Tropical Storm Tracking
New forecast layout! Learn more

10-Day Weather Forecast

Advertisements
Track Severe Weather on mobile